Observation data for Wolfforth on 02/16/2017      Previous  Date  Next       Current Mesonet Observations  Soil Data  Daily Summary Page  Observations in Plain Language
KWOS 160600Z 22007KT 02/M01 A3013 RMK A01 T00171008  RH  084%=      5-min Rain = 0
KWOS 160605Z 22008KT 02/M01 A3013 RMK A01 T00171008  RH  084%=      5-min Rain = 0
KWOS 160610Z 21008KT 02/M01 A3013 RMK A01 T00191008  RH  083%=      5-min Rain = 0
KWOS 160615Z 21008KT 02/M01 A3013 RMK A01 T00231008  RH  081%=      5-min Rain = 0
KWOS 160620Z 22008KT 03/M01 A3013 RMK A01 T00251010  RH  079%=      5-min Rain = 0
KWOS 160625Z 22008KT 03/M01 A3013 RMK A01 T00251010  RH  079%=      5-min Rain = 0
KWOS 160630Z 21008KT 02/M01 A3013 RMK A01 T00241010  RH  079%=      5-min Rain = 0
KWOS 160635Z 21008KT 02/M01 A3012 RMK A01 T00241011  RH  079%=      5-min Rain = 0
KWOS 160640Z 21008KT 02/M01 A3012 RMK A01 T00231012  RH  079%=      5-min Rain = 0
KWOS 160645Z 21008KT 02/M01 A3012 RMK A01 T00211013  RH  080%=      5-min Rain = 0
KWOS 160650Z 22008KT 02/M01 A3012 RMK A01 T00191013  RH  080%=      5-min Rain = 0
KWOS 160655Z 22007KT 02/M01 A3012 RMK A01 T00191013  RH  080%=      5-min Rain = 0
KWOS 160700Z 21007KT 02/M01 A3012 RMK A01 T00181014  RH  080%=      5-min Rain = 0
KWOS 160705Z 22007KT 02/M02 A3011 RMK A01 T00161015  RH  081%=      5-min Rain = 0
KWOS 160710Z 22007KT 02/M02 A3011 RMK A01 T00151015  RH  082%=      5-min Rain = 0
KWOS 160715Z 22008KT 02/M01 A3011 RMK A01 T00161014  RH  081%=      5-min Rain = 0
KWOS 160720Z 22008KT 02/M02 A3011 RMK A01 T00161015  RH  080%=      5-min Rain = 0
KWOS 160725Z 22008KT 01/M02 A3011 RMK A01 T00141016  RH  081%=      5-min Rain = 0
KWOS 160730Z 22008KT 01/M02 A3011 RMK A01 T00131017  RH  081%=      5-min Rain = 0
KWOS 160735Z 22008KT 01/M02 A3011 RMK A01 T00131017  RH  082%=      5-min Rain = 0
KWOS 160740Z 22008KT 01/M02 A3011 RMK A01 T00121017  RH  082%=      5-min Rain = 0
KWOS 160745Z 22008KT 01/M02 A3011 RMK A01 T00101018  RH  082%=      5-min Rain = 0
KWOS 160750Z 22008KT 01/M02 A3011 RMK A01 T00091017  RH  083%=      5-min Rain = 0
KWOS 160755Z 22008KT 01/M02 A3011 RMK A01 T00111016  RH  083%=      5-min Rain = 0
KWOS 160800Z 22008KT 01/M02 A3011 RMK A01 T00141015  RH  082%=      5-min Rain = 0
KWOS 160805Z 22007KT 01/M02 A3011 RMK A01 T00141016  RH  081%=      5-min Rain = 0
KWOS 160810Z 22007KT 01/M02 A3011 RMK A01 T00111016  RH  083%=      5-min Rain = 0
KWOS 160815Z 22007KT 01/M02 A3011 RMK A01 T00091016  RH  084%=      5-min Rain = 0
KWOS 160820Z 22008KT 01/M02 A3011 RMK A01 T00071017  RH  085%=      5-min Rain = 0
KWOS 160825Z 22007KT 01/M02 A301 RMK A01 T00071017  RH  085%=      5-min Rain = 0
KWOS 160830Z 22007KT 01/M02 A301 RMK A01 T00051017  RH  086%=      5-min Rain = 0
KWOS 160835Z 22006KT 00/M02 A301 RMK A01 T00041018  RH  086%=      5-min Rain = 0
KWOS 160840Z 23005KT 00/M02 A301 RMK A01 T00031018  RH  087%=      5-min Rain = 0
KWOS 160845Z 23005KT 00/M02 A301 RMK A01 T00021018  RH  088%=      5-min Rain = 0
KWOS 160850Z 23005KT 00/M02 A301 RMK A01 T00011017  RH  088%=      5-min Rain = 0
KWOS 160855Z 23007KT 00/M02 A301 RMK A01 T00021017  RH  089%=      5-min Rain = 0
KWOS 160900Z 23007KT 00/M02 A3009 RMK A01 T00041016  RH  088%=      5-min Rain = 0
KWOS 160905Z 23007KT 01/M02 A3009 RMK A01 T00051017  RH  086%=      5-min Rain = 0
KWOS 160910Z 23007KT 01/M02 A3009 RMK A01 T00061018  RH  085%=      5-min Rain = 0
KWOS 160915Z 24007KT 01/M02 A3009 RMK A01 T00051019  RH  085%=      5-min Rain = 0
KWOS 160920Z 25006KT 00/M02 A3009 RMK A01 T00041019  RH  086%=      5-min Rain = 0
KWOS 160925Z 24006KT 00/M02 A3009 RMK A01 T00031019  RH  086%=      5-min Rain = 0
KWOS 160930Z 23006KT 00/M02 A3009 RMK A01 T00021020  RH  086%=      5-min Rain = 0
KWOS 160935Z 23005KT 00/02 A3009 RMK A01 T00000-21  RH  087%=      5-min Rain = 0
KWOS 160940Z 22005KT M00/M02 A3009 RMK A01 T10021023  RH  087%=      5-min Rain = 0
KWOS 160945Z 23005KT M00/M02 A3009 RMK A01 T10041023  RH  088%=      5-min Rain = 0
KWOS 160950Z 23004KT M00/M02 A3008 RMK A01 T10041023  RH  088%=      5-min Rain = 0
KWOS 160955Z 22005KT M00/M02 A3008 RMK A01 T10031023  RH  088%=      5-min Rain = 0
KWOS 161000Z 23005KT M00/M02 A3008 RMK A01 T10021023  RH  087%=      5-min Rain = 0
KWOS 161005Z 24006KT M00/M02 A3008 RMK A01 T10011023  RH  086%=      5-min Rain = 0
KWOS 161010Z 24005KT 00/02 A3008 RMK A01 T00-00-24  RH  085%=      5-min Rain = 0
KWOS 161015Z 24006KT 00/02 A3008 RMK A01 T00000-24  RH  085%=      5-min Rain = 0
KWOS 161020Z 24005KT M00/M02 A3007 RMK A01 T10011024  RH  085%=      5-min Rain = 0
KWOS 161025Z 24005KT M00/M02 A3007 RMK A01 T10011024  RH  085%=      5-min Rain = 0
KWOS 161030Z 24005KT M00/M02 A3007 RMK A01 T10011024  RH  085%=      5-min Rain = 0
KWOS 161035Z 22005KT M00/M03 A3007 RMK A01 T10021025  RH  085%=      5-min Rain = 0
KWOS 161040Z 21005KT M01/M03 A3007 RMK A01 T10071029  RH  086%=      5-min Rain = 0
KWOS 161045Z 23005KT M01/M03 A3007 RMK A01 T10071028  RH  087%=      5-min Rain = 0
KWOS 161050Z 24006KT M01/M03 A3007 RMK A01 T10091028  RH  088%=      5-min Rain = 0
KWOS 161055Z 24005KT M01/M02 A3007 RMK A01 T10051024  RH  088%=      5-min Rain = 0
KWOS 161100Z 23005KT M00/M02 A3007 RMK A01 T10041024  RH  087%=      5-min Rain = 0
KWOS 161105Z 23005KT M00/M03 A3007 RMK A01 T10041025  RH  087%=      5-min Rain = 0
KWOS 161110Z 23006KT M01/M03 A3007 RMK A01 T10051027  RH  086%=      5-min Rain = 0
KWOS 161115Z 22006KT M01/M03 A3007 RMK A01 T10051027  RH  086%=      5-min Rain = 0
KWOS 161120Z 23006KT M01/M03 A3007 RMK A01 T10071029  RH  086%=      5-min Rain = 0
KWOS 161125Z 22006KT M01/M03 A3007 RMK A01 T10061027  RH  087%=      5-min Rain = 0
KWOS 161130Z 23006KT M01/M03 A3006 RMK A01 T10051027  RH  086%=      5-min Rain = 0
KWOS 161135Z 23006KT M00/M03 A3006 RMK A01 T10031027  RH  085%=      5-min Rain = 0
KWOS 161140Z 22006KT M01/M03 A3007 RMK A01 T10061030  RH  085%=      5-min Rain = 0
KWOS 161145Z 22006KT M01/M03 A3007 RMK A01 T10101032  RH  086%=      5-min Rain = 0
KWOS 161150Z 22006KT M01/M03 A3007 RMK A01 T10101031  RH  087%=      5-min Rain = 0
KWOS 161155Z 22005KT M01/M03 A3006 RMK A01 T10091030  RH  087%=      5-min Rain = 0
KWOS 161200Z 22006KT M01/M03 A3006 RMK A01 T10091030  RH  087%=      5-min Rain = 0
KWOS 161205Z 22007KT M01/M03 A3006 RMK A01 T10091030  RH  087%=      5-min Rain = 0
KWOS 161210Z 21008KT M01/M03 A3006 RMK A01 T10101030  RH  087%=      5-min Rain = 0
KWOS 161215Z 21008KT M01/M03 A3006 RMK A01 T10101030  RH  087%=      5-min Rain = 0
KWOS 161220Z 22008KT M01/M03 A3006 RMK A01 T10091029  RH  087%=      5-min Rain = 0
KWOS 161225Z 22008KT M01/M03 A3006 RMK A01 T10071029  RH  086%=      5-min Rain = 0
KWOS 161230Z 22007KT M01/M03 A3006 RMK A01 T10071030  RH  086%=      5-min Rain = 0
KWOS 161235Z 22007KT M01/M03 A3006 RMK A01 T10091031  RH  086%=      5-min Rain = 0
KWOS 161240Z 22007KT M01/M03 A3006 RMK A01 T10101031  RH  086%=      5-min Rain = 0
KWOS 161245Z 22006KT M01/M03 A3006 RMK A01 T10101031  RH  087%=      5-min Rain = 0
KWOS 161250Z 21007KT M01/M03 A3006 RMK A01 T10111032  RH  087%=      5-min Rain = 0
KWOS 161255Z 20008KT M01/M03 A3006 RMK A01 T10121031  RH  088%=      5-min Rain = 0
KWOS 161300Z 21008KT M01/M03 A3006 RMK A01 T10111030  RH  088%=      5-min Rain = 0
KWOS 161305Z 21007KT M01/M03 A3006 RMK A01 T10111030  RH  088%=      5-min Rain = 0
KWOS 161310Z 22006KT M01/M03 A3006 RMK A01 T10121030  RH  088%=      5-min Rain = 0
KWOS 161315Z 22006KT M01/M03 A3006 RMK A01 T10131031  RH  089%=      5-min Rain = 0
KWOS 161320Z 22006KT M01/M03 A3006 RMK A01 T10131030  RH  089%=      5-min Rain = 0
KWOS 161325Z 23006KT M01/M03 A3005 RMK A01 T10111028  RH  089%=      5-min Rain = 0
KWOS 161330Z 23006KT M01/M03 A3006 RMK A01 T10091028  RH  088%=      5-min Rain = 0
KWOS 161335Z 23007KT M01/M03 A3006 RMK A01 T10061027  RH  087%=      5-min Rain = 0
KWOS 161340Z 23007KT M00/M03 A3006 RMK A01 T10041027  RH  085%=      5-min Rain = 0
KWOS 161345Z 23008KT M00/M03 A3006 RMK A01 T10031029  RH  084%=      5-min Rain = 0
KWOS 161350Z 23008KT M00/M03 A3006 RMK A01 T10011028  RH  083%=      5-min Rain = 0
KWOS 161355Z 23008KT 00/M03 A3006 RMK A01 T00011029  RH  081%=      5-min Rain = 0
KWOS 161400Z 23008KT 00/M03 A3005 RMK A01 T00031029  RH  080%=      5-min Rain = 0
KWOS 161405Z 23008KT 00/M03 A3006 RMK A01 T00041028  RH  080%=      5-min Rain = 0
KWOS 161410Z 23008KT 01/M03 A3006 RMK A01 T00051027  RH  080%=      5-min Rain = 0
KWOS 161415Z 23007KT 01/M03 A3006 RMK A01 T00071026  RH  079%=      5-min Rain = 0
KWOS 161420Z 22006KT 01/M02 A3006 RMK A01 T00081023  RH  080%=      5-min Rain = 0
KWOS 161425Z 21007KT 01/M02 A3006 RMK A01 T00101021  RH  081%=      5-min Rain = 0
KWOS 161430Z 22007KT 01/M02 A3006 RMK A01 T00121021  RH  080%=      5-min Rain = 0
KWOS 161435Z 22007KT 01/M02 A3006 RMK A01 T00131020  RH  080%=      5-min Rain = 0
KWOS 161440Z 22007KT 02/M02 A3006 RMK A01 T00171017  RH  079%=      5-min Rain = 0
KWOS 161445Z 23006KT 02/M02 A3006 RMK A01 T00201017  RH  077%=      5-min Rain = 0
KWOS 161450Z 23007KT 02/M02 A3006 RMK A01 T00231017  RH  076%=      5-min Rain = 0
KWOS 161455Z 22007KT 03/M02 A3006 RMK A01 T00251016  RH  075%=      5-min Rain = 0
KWOS 161500Z 22008KT 03/M02 A3006 RMK A01 T00261016  RH  075%=      5-min Rain = 0
KWOS 161505Z 23008KT 03/M02 A3006 RMK A01 T00301016  RH  073%=      5-min Rain = 0
KWOS 161510Z 23009KT 03/M01 A3006 RMK A01 T00331014  RH  072%=      5-min Rain = 0
KWOS 161515Z 23010KT 04/M01 A3006 RMK A01 T00391014  RH  069%=      5-min Rain = 0
KWOS 161520Z 23011KT 04/M02 A3006 RMK A01 T00421016  RH  067%=      5-min Rain = 0
KWOS 161525Z 22010KT 04/M01 A3006 RMK A01 T00441012  RH  067%=      5-min Rain = 0
KWOS 161530Z 23010KT 05/M01 A3006 RMK A01 T00491011  RH  066%=      5-min Rain = 0
KWOS 161535Z 23010KT 05/M01 A3006 RMK A01 T00531010  RH  064%=      5-min Rain = 0
KWOS 161540Z 23011G16KT 05/M01 A3006 RMK A01 T00531012  RH  064%=      5-min Rain = 0
KWOS 161545Z 23012KT 05/M01 A3006 RMK A01 T00541014  RH  062%=      5-min Rain = 0
KWOS 161550Z 23011KT 06/M01 A3005 RMK A01 T00571010  RH  063%=      5-min Rain = 0
KWOS 161555Z 23013KT 06/M01 A3005 RMK A01 T00641008  RH  061%=      5-min Rain = 0
KWOS 161600Z 23014KT 07/M01 A3005 RMK A01 T00711008  RH  058%=      5-min Rain = 0
KWOS 161605Z 23013KT 08/M01 A3005 RMK A01 T00771006  RH  056%=      5-min Rain = 0
KWOS 161610Z 23012KT 08/M00 A3005 RMK A01 T00831002  RH  056%=      5-min Rain = 0
KWOS 161615Z 23012G17KT 09/M00 A3005 RMK A01 T00901002  RH  053%=      5-min Rain = 0
KWOS 161620Z 23014G19KT 09/M01 A3005 RMK A01 T00941007  RH  050%=      5-min Rain = 0
KWOS 161625Z 23014G19KT 10/M01 A3004 RMK A01 T00981007  RH  049%=      5-min Rain = 0
KWOS 161630Z 23014KT 10/M01 A3004 RMK A01 T00951009  RH  049%=      5-min Rain = 0
KWOS 161635Z 23013KT 10/M01 A3004 RMK A01 T00951007  RH  050%=      5-min Rain = 0
KWOS 161640Z 22014KT 10/M00 A3004 RMK A01 T00961004  RH  050%=      5-min Rain = 0
KWOS 161645Z 23013KT 10/M00 A3004 RMK A01 T00991001  RH  050%=      5-min Rain = 0
KWOS 161650Z 22013KT 10/M00 A3003 RMK A01 T01041001  RH  049%=      5-min Rain = 0
KWOS 161655Z 23013KT 11/M00 A3003 RMK A01 T01061003  RH  048%=      5-min Rain = 0
KWOS 161700Z 23015KT 10/M01 A3003 RMK A01 T01041009  RH  046%=      5-min Rain = 0
KWOS 161705Z 22014G19KT 10/M01 A3003 RMK A01 T01031006  RH  047%=      5-min Rain = 0
KWOS 161710Z 22015KT 11/M00 A3003 RMK A01 T01061004  RH  047%=      5-min Rain = 0
KWOS 161715Z 22014KT 11/M00 A3003 RMK A01 T01131003  RH  045%=      5-min Rain = 0
KWOS 161720Z 22014KT 12/M01 A3003 RMK A01 T01191006  RH  042%=      5-min Rain = 0
KWOS 161725Z 22016G21KT 12/M01 A3003 RMK A01 T01181012  RH  041%=      5-min Rain = 0
KWOS 161730Z 23016G22KT 12/M02 A3003 RMK A01 T01181015  RH  040%=      5-min Rain = 0
KWOS 161735Z 22017KT 12/M02 A3003 RMK A01 T01151019  RH  040%=      5-min Rain = 0
KWOS 161740Z 22017KT 11/M03 A3003 RMK A01 T01071025  RH  040%=      5-min Rain = 0
KWOS 161745Z 22015KT 11/M02 A3002 RMK A01 T01071021  RH  041%=      5-min Rain = 0
KWOS 161750Z 22016KT 11/M02 A3003 RMK A01 T01101018  RH  041%=      5-min Rain = 0
KWOS 161755Z 22015KT 12/M02 A3002 RMK A01 T01161015  RH  041%=      5-min Rain = 0
KWOS 161800Z 23014G19KT 13/M01 A3002 RMK A01 T01261011  RH  039%=      5-min Rain = 0
KWOS 161805Z 24014KT 13/M01 A3002 RMK A01 T01331006  RH  039%=      5-min Rain = 0
KWOS 161810Z 23014KT 14/M01 A3001 RMK A01 T01351013  RH  036%=      5-min Rain = 0
KWOS 161815Z 23014KT 14/M01 A3001 RMK A01 T01401012  RH  035%=      5-min Rain = 0
KWOS 161820Z 23014KT 14/M01 A3001 RMK A01 T01441013  RH  034%=      5-min Rain = 0
KWOS 161825Z 22012KT 15/M01 A30 RMK A01 T01501008  RH  034%=      5-min Rain = 0
KWOS 161830Z 22014KT 15/M01 A30 RMK A01 T01491014  RH  033%=      5-min Rain = 0
KWOS 161835Z 22013G18KT 15/M01 A30 RMK A01 T01521014  RH  032%=      5-min Rain = 0
KWOS 161840Z 22014KT 15/M02 A2999 RMK A01 T01541020  RH  031%=      5-min Rain = 0
KWOS 161845Z 22013G19KT 15/M02 A2999 RMK A01 T01531024  RH  030%=      5-min Rain = 0
KWOS 161850Z 21013G18KT 15/M03 A2999 RMK A01 T01511027  RH  030%=      5-min Rain = 0
KWOS 161855Z 21013G19KT 15/M02 A2998 RMK A01 T01521021  RH  031%=      5-min Rain = 0
KWOS 161900Z 21014KT 15/M02 A2998 RMK A01 T01521023  RH  030%=      5-min Rain = 0
KWOS 161905Z 20014KT 16/M02 A2998 RMK A01 T01561021  RH  030%=      5-min Rain = 0
KWOS 161910Z 20014G19KT 16/M02 A2998 RMK A01 T01551019  RH  031%=      5-min Rain = 0
KWOS 161915Z 21013G18KT 16/M02 A2997 RMK A01 T01581021  RH  030%=      5-min Rain = 0
KWOS 161920Z 23013G18KT 16/M03 A2997 RMK A01 T01601027  RH  028%=      5-min Rain = 0
KWOS 161925Z 22013G19KT 16/M04 A2997 RMK A01 T01631036  RH  026%=      5-min Rain = 0
KWOS 161930Z 22012G17KT 17/M03 A2997 RMK A01 T01651031  RH  026%=      5-min Rain = 0
KWOS 161935Z 22014G19KT 16/M04 A2996 RMK A01 T01581039  RH  026%=      5-min Rain = 0
KWOS 161940Z 21013KT 16/M04 A2996 RMK A01 T01551035  RH  027%=      5-min Rain = 0
KWOS 161945Z 21014KT 15/M04 A2996 RMK A01 T01531035  RH  027%=      5-min Rain = 0
KWOS 161950Z 21013KT 15/M04 A2996 RMK A01 T01511036  RH  028%=      5-min Rain = 0
KWOS 161955Z 22011KT 16/M03 A2995 RMK A01 T01561033  RH  027%=      5-min Rain = 0
KWOS 162000Z 23014KT 16/M03 A2995 RMK A01 T01631030  RH  027%=      5-min Rain = 0
KWOS 162005Z 22013G18KT 17/M03 A2995 RMK A01 T01671033  RH  026%=      5-min Rain = 0
KWOS 162010Z 23012G19KT 17/M03 A2995 RMK A01 T01671032  RH  026%=      5-min Rain = 0
KWOS 162015Z 21014KT 17/M04 A2994 RMK A01 T01701036  RH  025%=      5-min Rain = 0
KWOS 162020Z 22013KT 17/M04 A2994 RMK A01 T01721038  RH  024%=      5-min Rain = 0
KWOS 162025Z 21013KT 17/M04 A2994 RMK A01 T01671040  RH  024%=      5-min Rain = 0
KWOS 162030Z 20014KT 17/M04 A2994 RMK A01 T01741036  RH  024%=      5-min Rain = 0
KWOS 162035Z 22016G21KT 17/M04 A2993 RMK A01 T01741039  RH  023%=      5-min Rain = 0
KWOS 162040Z 22012G20KT 17/M04 A2993 RMK A01 T01741039  RH  023%=      5-min Rain = 0
KWOS 162045Z 21012KT 18/M04 A2993 RMK A01 T01761038  RH  023%=      5-min Rain = 0
KWOS 162050Z 22014G22KT 18/M04 A2993 RMK A01 T01791040  RH  022%=      5-min Rain = 0
KWOS 162055Z 22013G20KT 18/M04 A2993 RMK A01 T01761044  RH  022%=      5-min Rain = 0
KWOS 162100Z 22014G23KT 18/M04 A2992 RMK A01 T01771043  RH  022%=      5-min Rain = 0
KWOS 162105Z 21013KT 18/M04 A2992 RMK A01 T01801041  RH  022%=      5-min Rain = 0
KWOS 162110Z 21014G19KT 18/M05 A2992 RMK A01 T01781045  RH  022%=      5-min Rain = 0
KWOS 162115Z 21015G20KT 18/M04 A2992 RMK A01 T01791044  RH  022%=      5-min Rain = 0
KWOS 162120Z 22015G20KT 18/M05 A2992 RMK A01 T01761047  RH  022%=      5-min Rain = 0
KWOS 162125Z 21014KT 18/M05 A2992 RMK A01 T01771045  RH  022%=      5-min Rain = 0
KWOS 162130Z 20012G17KT 18/M05 A2992 RMK A01 T01771046  RH  022%=      5-min Rain = 0
KWOS 162135Z 22014KT 18/M05 A2992 RMK A01 T01761049  RH  021%=      5-min Rain = 0
KWOS 162140Z 20015KT 18/M05 A2992 RMK A01 T01751052  RH  021%=      5-min Rain = 0
KWOS 162145Z 22014G20KT 18/M05 A2992 RMK A01 T01761047  RH  022%=      5-min Rain = 0
KWOS 162150Z 21015KT 17/M05 A2991 RMK A01 T01741050  RH  021%=      5-min Rain = 0
KWOS 162155Z 23014G20KT 18/M05 A2991 RMK A01 T01761048  RH  022%=      5-min Rain = 0
KWOS 162200Z 20015KT 18/M05 A2991 RMK A01 T01751047  RH  022%=      5-min Rain = 0
KWOS 162205Z 21016KT 17/M04 A2991 RMK A01 T01721043  RH  023%=      5-min Rain = 0
KWOS 162210Z 20015KT 17/M04 A2991 RMK A01 T01661044  RH  024%=      5-min Rain = 0
KWOS 162215Z 20015G20KT 16/M04 A2991 RMK A01 T01621042  RH  025%=      5-min Rain = 0
KWOS 162220Z 19015KT 16/M04 A2991 RMK A01 T01571044  RH  025%=      5-min Rain = 0
KWOS 162225Z 19015KT 16/M04 A2991 RMK A01 T01601042  RH  025%=      5-min Rain = 0
KWOS 162230Z 19015KT 16/M04 A2991 RMK A01 T01591043  RH  025%=      5-min Rain = 0
KWOS 162235Z 19014KT 16/M04 A2991 RMK A01 T01561041  RH  026%=      5-min Rain = 0
KWOS 162240Z 19013KT 15/M04 A2991 RMK A01 T01541040  RH  026%=      5-min Rain = 0
KWOS 162245Z 19013KT 15/M04 A2991 RMK A01 T01511040  RH  027%=      5-min Rain = 0
KWOS 162250Z 19011KT 15/M04 A2991 RMK A01 T01501036  RH  028%=      5-min Rain = 0
KWOS 162255Z 18011KT 15/M03 A2991 RMK A01 T01481033  RH  029%=      5-min Rain = 0
KWOS 162300Z 18011KT 15/M03 A2991 RMK A01 T01471034  RH  029%=      5-min Rain = 0
KWOS 162305Z 19010KT 15/M03 A2991 RMK A01 T01461032  RH  029%=      5-min Rain = 0
KWOS 162310Z 18009KT 15/M03 A2991 RMK A01 T01451030  RH  030%=      5-min Rain = 0
KWOS 162315Z 18009KT 15/M03 A2991 RMK A01 T01471027  RH  030%=      5-min Rain = 0
KWOS 162320Z 18009KT 15/M03 A2991 RMK A01 T01511030  RH  029%=      5-min Rain = 0
KWOS 162325Z 18007KT 15/M03 A2991 RMK A01 T01491028  RH  030%=      5-min Rain = 0
KWOS 162330Z 18007KT 15/M02 A2991 RMK A01 T01451024  RH  031%=      5-min Rain = 0
KWOS 162335Z 17006KT 14/M03 A2991 RMK A01 T01431026  RH  031%=      5-min Rain = 0
KWOS 162340Z 17007KT 14/M03 A2991 RMK A01 T01401025  RH  032%=      5-min Rain = 0
KWOS 162345Z 17006KT 14/M02 A2991 RMK A01 T01371021  RH  034%=      5-min Rain = 0
KWOS 162350Z 16007KT 13/M02 A2991 RMK A01 T01341020  RH  035%=      5-min Rain = 0
KWOS 162355Z 17006KT 13/M02 A2991 RMK A01 T01301017  RH  037%=      5-min Rain = 0
KWOS 170000Z 17007KT 13/M02 A2991 RMK A01 T01291017  RH  037%=      5-min Rain = 0
KWOS 170005Z 19009KT 13/M02 A2991 RMK A01 T01291021  RH  036%=      5-min Rain = 0
KWOS 170010Z 19009KT 13/M03 A2991 RMK A01 T01291025  RH  035%=      5-min Rain = 0
KWOS 170015Z 19010KT 13/M02 A2991 RMK A01 T01261024  RH  036%=      5-min Rain = 0
KWOS 170020Z 19010KT 12/M02 A2991 RMK A01 T01241024  RH  036%=      5-min Rain = 0
KWOS 170025Z 19010KT 12/M02 A299 RMK A01 T01211024  RH  037%=      5-min Rain = 0
KWOS 170030Z 19011KT 12/M02 A299 RMK A01 T01191023  RH  037%=      5-min Rain = 0
KWOS 170035Z 18010KT 12/M02 A299 RMK A01 T01171022  RH  038%=      5-min Rain = 0
KWOS 170040Z 18009KT 11/M02 A299 RMK A01 T01141021  RH  039%=      5-min Rain = 0
KWOS 170045Z 18010KT 11/M02 A299 RMK A01 T01081020  RH  041%=      5-min Rain = 0
KWOS 170050Z 18009KT 10/M02 A299 RMK A01 T01031019  RH  043%=      5-min Rain = 0
KWOS 170055Z 18008KT 10/M02 A299 RMK A01 T01011018  RH  044%=      5-min Rain = 0
KWOS 170100Z 18009KT 10/M02 A299 RMK A01 T00991019  RH  044%=      5-min Rain = 0
KWOS 170105Z 18009KT 10/M02 A299 RMK A01 T00971018  RH  045%=      5-min Rain = 0
KWOS 170110Z 18007KT 09/M02 A299 RMK A01 T00941017  RH  046%=      5-min Rain = 0
KWOS 170115Z 18008KT 09/M02 A299 RMK A01 T00911016  RH  048%=      5-min Rain = 0
KWOS 170120Z 18009KT 09/M02 A299 RMK A01 T00891016  RH  048%=      5-min Rain = 0
KWOS 170125Z 18010KT 09/M02 A299 RMK A01 T00891016  RH  048%=      5-min Rain = 0
KWOS 170130Z 19009KT 09/M02 A299 RMK A01 T00901018  RH  047%=      5-min Rain = 0
KWOS 170135Z 19009KT 09/M02 A299 RMK A01 T00891018  RH  048%=      5-min Rain = 0
KWOS 170140Z 19008KT 09/M02 A299 RMK A01 T00871018  RH  048%=      5-min Rain = 0
KWOS 170145Z 19008KT 08/M02 A299 RMK A01 T00821016  RH  051%=      5-min Rain = 0
KWOS 170150Z 19007KT 08/M02 A299 RMK A01 T00841016  RH  050%=      5-min Rain = 0
KWOS 170155Z 19007KT 08/M02 A299 RMK A01 T00801016  RH  051%=      5-min Rain = 0
KWOS 170200Z 19006KT 08/M02 A299 RMK A01 T00771015  RH  053%=      5-min Rain = 0
KWOS 170205Z 18006KT 07/M02 A299 RMK A01 T00721015  RH  054%=      5-min Rain = 0
KWOS 170210Z 18006KT 07/M01 A299 RMK A01 T00731014  RH  055%=      5-min Rain = 0
KWOS 170215Z 19007KT 07/M01 A299 RMK A01 T00741013  RH  055%=      5-min Rain = 0
KWOS 170220Z 19007KT 08/M01 A299 RMK A01 T00751013  RH  054%=      5-min Rain = 0
KWOS 170225Z 20007KT 07/M01 A299 RMK A01 T00661012  RH  058%=      5-min Rain = 0
KWOS 170230Z 20007KT 06/M01 A2989 RMK A01 T00621011  RH  060%=      5-min Rain = 0
KWOS 170235Z 20007KT 06/M01 A2989 RMK A01 T00611010  RH  061%=      5-min Rain = 0
KWOS 170240Z 20007KT 06/M01 A2989 RMK A01 T00591010  RH  062%=      5-min Rain = 0
KWOS 170245Z 19007KT 06/M01 A2989 RMK A01 T00611010  RH  061%=      5-min Rain = 0
KWOS 170250Z 19008KT 07/M01 A2989 RMK A01 T00681011  RH  058%=      5-min Rain = 0
KWOS 170255Z 18008KT 07/M01 A2989 RMK A01 T00661011  RH  059%=      5-min Rain = 0
KWOS 170300Z 19008KT 07/M01 A2989 RMK A01 T00671011  RH  058%=      5-min Rain = 0
KWOS 170305Z 18009KT 07/M01 A2989 RMK A01 T00661012  RH  058%=      5-min Rain = 0
KWOS 170310Z 18009KT 07/M01 A2989 RMK A01 T00671012  RH  058%=      5-min Rain = 0
KWOS 170315Z 18008KT 07/M01 A2989 RMK A01 T00671012  RH  058%=      5-min Rain = 0
KWOS 170320Z 18008KT 07/M01 A2989 RMK A01 T00651011  RH  059%=      5-min Rain = 0
KWOS 170325Z 18008KT 06/M01 A2989 RMK A01 T00641011  RH  059%=      5-min Rain = 0
KWOS 170330Z 17008KT 07/M01 A2989 RMK A01 T00651012  RH  059%=      5-min Rain = 0
KWOS 170335Z 17007KT 07/M01 A2989 RMK A01 T00651014  RH  058%=      5-min Rain = 0
KWOS 170340Z 18008KT 06/M01 A2989 RMK A01 T00641013  RH  058%=      5-min Rain = 0
KWOS 170345Z 18008KT 07/M01 A2989 RMK A01 T00651013  RH  058%=      5-min Rain = 0
KWOS 170350Z 18008KT 06/M01 A2989 RMK A01 T00641012  RH  059%=      5-min Rain = 0
KWOS 170355Z 18007KT 06/M01 A2989 RMK A01 T00621011  RH  060%=      5-min Rain = 0
KWOS 170400Z 18008KT 07/M01 A2989 RMK A01 T00651011  RH  059%=      5-min Rain = 0
KWOS 170405Z 18007KT 06/M01 A2989 RMK A01 T00631011  RH  060%=      5-min Rain = 0
KWOS 170410Z 19007KT 06/M01 A2989 RMK A01 T00591010  RH  062%=      5-min Rain = 0
KWOS 170415Z 18007KT 06/M01 A2989 RMK A01 T00581009  RH  063%=      5-min Rain = 0
KWOS 170420Z 18007KT 06/M01 A2989 RMK A01 T00561009  RH  064%=      5-min Rain = 0
KWOS 170425Z 19007KT 06/M01 A2989 RMK A01 T00561008  RH  064%=      5-min Rain = 0
KWOS 170430Z 18007KT 06/M01 A2989 RMK A01 T00561008  RH  064%=      5-min Rain = 0
KWOS 170435Z 18007KT 05/M01 A2988 RMK A01 T00521008  RH  066%=      5-min Rain = 0
KWOS 170440Z 18007KT 05/M01 A2988 RMK A01 T00531006  RH  066%=      5-min Rain = 0
KWOS 170445Z 18007KT 06/M00 A2988 RMK A01 T00551004  RH  066%=      5-min Rain = 0
KWOS 170450Z 18007KT 05/M00 A2988 RMK A01 T00531004  RH  067%=      5-min Rain = 0
KWOS 170455Z 18007KT 05/M00 A2988 RMK A01 T00521004  RH  068%=      5-min Rain = 0
KWOS 170500Z 18007KT 05/M00 A2988 RMK A01 T00501004  RH  069%=      5-min Rain = 0
KWOS 170505Z 18008KT 05/M00 A2988 RMK A01 T00491003  RH  069%=      5-min Rain = 0
KWOS 170510Z 18008KT 05/M00 A2988 RMK A01 T00511002  RH  069%=      5-min Rain = 0
KWOS 170515Z 18008KT 05/M00 A2988 RMK A01 T00521001  RH  069%=      5-min Rain = 0
KWOS 170520Z 18008KT 05/00 A2988 RMK A01 T005200-0  RH  070%=      5-min Rain = 0
KWOS 170525Z 18008KT 05/M00 A2988 RMK A01 T00491001  RH  071%=      5-min Rain = 0
KWOS 170530Z 18008KT 05/00 A2988 RMK A01 T004800-0  RH  072%=      5-min Rain = 0
KWOS 170535Z 18008KT 05/00 A2988 RMK A01 T00470000  RH  072%=      5-min Rain = 0
KWOS 170540Z 19007KT 05/00 A2988 RMK A01 T00480001  RH  072%=      5-min Rain = 0
KWOS 170545Z 19007KT 05/00 A2988 RMK A01 T004500-0  RH  073%=      5-min Rain = 0
KWOS 170550Z 19007KT 04/M00 A2988 RMK A01 T00421001  RH  075%=      5-min Rain = 0
KWOS 170555Z 18008KT 04/00 A2988 RMK A01 T00430001  RH  075%=      5-min Rain = 0

Page generated in 0.0202 seconds.